sensor_id;sensor_type;location;lat;lon;timestamp;P1;durP1;ratioP1;P2;durP2;ratioP2
8819;SDS011;4446;50.876;4.736;2024-01-10T00:02:07;6.27;;;3.03;;
8819;SDS011;4446;50.876;4.736;2024-01-10T00:04:35;4.50;;;2.30;;
8819;SDS011;4446;50.876;4.736;2024-01-10T00:07:02;5.33;;;2.63;;
8819;SDS011;4446;50.876;4.736;2024-01-10T00:09:30;6.10;;;2.83;;
8819;SDS011;4446;50.876;4.736;2024-01-10T00:11:57;6.50;;;2.57;;
8819;SDS011;4446;50.876;4.736;2024-01-10T00:14:25;6.33;;;3.13;;
8819;SDS011;4446;50.876;4.736;2024-01-10T00:16:52;4.00;;;2.47;;
8819;SDS011;4446;50.876;4.736;2024-01-10T00:19:19;4.00;;;2.40;;
8819;SDS011;4446;50.876;4.736;2024-01-10T00:21:46;4.20;;;2.73;;
8819;SDS011;4446;50.876;4.736;2024-01-10T00:24:13;5.47;;;3.20;;
8819;SDS011;4446;50.876;4.736;2024-01-10T00:26:40;5.90;;;3.10;;
8819;SDS011;4446;50.876;4.736;2024-01-10T00:29:07;6.13;;;2.83;;
8819;SDS011;4446;50.876;4.736;2024-01-10T00:31:35;4.70;;;2.83;;
8819;SDS011;4446;50.876;4.736;2024-01-10T00:34:02;5.63;;;2.87;;
8819;SDS011;4446;50.876;4.736;2024-01-10T00:36:30;7.53;;;3.07;;
8819;SDS011;4446;50.876;4.736;2024-01-10T00:38:56;4.90;;;2.67;;
8819;SDS011;4446;50.876;4.736;2024-01-10T00:41:23;4.33;;;2.77;;
8819;SDS011;4446;50.876;4.736;2024-01-10T00:43:50;4.63;;;2.73;;
8819;SDS011;4446;50.876;4.736;2024-01-10T00:46:18;6.17;;;3.33;;
8819;SDS011;4446;50.876;4.736;2024-01-10T00:48:47;5.93;;;2.90;;
8819;SDS011;4446;50.876;4.736;2024-01-10T00:51:14;3.70;;;2.40;;
8819;SDS011;4446;50.876;4.736;2024-01-10T00:53:41;5.80;;;2.57;;
8819;SDS011;4446;50.876;4.736;2024-01-10T00:56:08;7.13;;;3.03;;
8819;SDS011;4446;50.876;4.736;2024-01-10T00:58:36;5.50;;;2.87;;
8819;SDS011;4446;50.876;4.736;2024-01-10T01:01:03;6.20;;;3.50;;
8819;SDS011;4446;50.876;4.736;2024-01-10T01:03:30;3.83;;;2.30;;
8819;SDS011;4446;50.876;4.736;2024-01-10T01:05:59;8.30;;;3.10;;
8819;SDS011;4446;50.876;4.736;2024-01-10T01:08:26;6.50;;;3.40;;
8819;SDS011;4446;50.876;4.736;2024-01-10T01:10:53;6.43;;;3.20;;
8819;SDS011;4446;50.876;4.736;2024-01-10T01:13:20;5.27;;;2.63;;
8819;SDS011;4446;50.876;4.736;2024-01-10T01:15:47;10.97;;;3.57;;
8819;SDS011;4446;50.876;4.736;2024-01-10T01:18:14;4.70;;;3.27;;
8819;SDS011;4446;50.876;4.736;2024-01-10T01:20:41;5.13;;;2.73;;
8819;SDS011;4446;50.876;4.736;2024-01-10T01:23:10;6.53;;;2.47;;
8819;SDS011;4446;50.876;4.736;2024-01-10T01:25:37;7.90;;;2.83;;
8819;SDS011;4446;50.876;4.736;2024-01-10T01:28:04;7.40;;;3.30;;
8819;SDS011;4446;50.876;4.736;2024-01-10T01:30:31;6.50;;;2.90;;
8819;SDS011;4446;50.876;4.736;2024-01-10T01:32:58;6.50;;;3.03;;
8819;SDS011;4446;50.876;4.736;2024-01-10T01:35:25;4.47;;;2.40;;
8819;SDS011;4446;50.876;4.736;2024-01-10T01:37:52;5.17;;;2.80;;
8819;SDS011;4446;50.876;4.736;2024-01-10T01:40:21;8.20;;;3.20;;
8819;SDS011;4446;50.876;4.736;2024-01-10T01:42:48;5.53;;;3.37;;
8819;SDS011;4446;50.876;4.736;2024-01-10T01:45:15;5.53;;;2.80;;
8819;SDS011;4446;50.876;4.736;2024-01-10T01:47:42;4.60;;;2.60;;
8819;SDS011;4446;50.876;4.736;2024-01-10T01:50:10;5.33;;;2.97;;
8819;SDS011;4446;50.876;4.736;2024-01-10T01:52:37;4.60;;;2.97;;
8819;SDS011;4446;50.876;4.736;2024-01-10T01:55:04;6.77;;;2.80;;
8819;SDS011;4446;50.876;4.736;2024-01-10T01:57:35;8.87;;;3.27;;
8819;SDS011;4446;50.876;4.736;2024-01-10T02:00:03;5.63;;;3.00;;
8819;SDS011;4446;50.876;4.736;2024-01-10T02:02:31;4.07;;;2.40;;
8819;SDS011;4446;50.876;4.736;2024-01-10T02:05:00;5.40;;;3.10;;
8819;SDS011;4446;50.876;4.736;2024-01-10T02:07:29;4.13;;;2.40;;
8819;SDS011;4446;50.876;4.736;2024-01-10T02:09:56;6.17;;;3.07;;
8819;SDS011;4446;50.876;4.736;2024-01-10T02:12:22;6.17;;;3.80;;
8819;SDS011;4446;50.876;4.736;2024-01-10T02:14:52;6.50;;;2.77;;
8819;SDS011;4446;50.876;4.736;2024-01-10T02:17:19;4.87;;;3.13;;
8819;SDS011;4446;50.876;4.736;2024-01-10T02:19:46;5.53;;;3.07;;
8819;SDS011;4446;50.876;4.736;2024-01-10T02:22:13;4.53;;;2.60;;
8819;SDS011;4446;50.876;4.736;2024-01-10T02:24:40;5.97;;;3.00;;
8819;SDS011;4446;50.876;4.736;2024-01-10T02:27:08;4.70;;;2.90;;
8819;SDS011;4446;50.876;4.736;2024-01-10T02:29:35;5.17;;;3.17;;
8819;SDS011;4446;50.876;4.736;2024-01-10T02:32:02;6.40;;;2.80;;
8819;SDS011;4446;50.876;4.736;2024-01-10T02:34:30;4.20;;;2.60;;
8819;SDS011;4446;50.876;4.736;2024-01-10T02:36:57;3.80;;;2.80;;
8819;SDS011;4446;50.876;4.736;2024-01-10T02:39:24;10.03;;;3.43;;
8819;SDS011;4446;50.876;4.736;2024-01-10T02:41:51;5.67;;;2.80;;
8819;SDS011;4446;50.876;4.736;2024-01-10T02:44:19;5.23;;;3.27;;
8819;SDS011;4446;50.876;4.736;2024-01-10T02:46:48;7.87;;;3.13;;
8819;SDS011;4446;50.876;4.736;2024-01-10T02:49:15;2.67;;;2.37;;
8819;SDS011;4446;50.876;4.736;2024-01-10T02:51:43;4.40;;;3.00;;
8819;SDS011;4446;50.876;4.736;2024-01-10T02:54:10;4.13;;;2.80;;
8819;SDS011;4446;50.876;4.736;2024-01-10T02:56:37;5.87;;;2.80;;
8819;SDS011;4446;50.876;4.736;2024-01-10T02:59:04;6.07;;;2.93;;
8819;SDS011;4446;50.876;4.736;2024-01-10T03:01:34;3.70;;;2.40;;
8819;SDS011;4446;50.876;4.736;2024-01-10T03:04:01;4.87;;;2.63;;
8819;SDS011;4446;50.876;4.736;2024-01-10T03:06:28;4.17;;;2.77;;
8819;SDS011;4446;50.876;4.736;2024-01-10T03:08:55;5.67;;;3.13;;
8819;SDS011;4446;50.876;4.736;2024-01-10T03:11:22;6.57;;;3.17;;
8819;SDS011;4446;50.876;4.736;2024-01-10T03:13:51;3.83;;;2.57;;
8819;SDS011;4446;50.876;4.736;2024-01-10T03:16:26;5.17;;;3.07;;
8819;SDS011;4446;50.876;4.736;2024-01-10T03:18:55;3.97;;;2.43;;
8819;SDS011;4446;50.876;4.736;2024-01-10T03:21:22;6.47;;;3.03;;
8819;SDS011;4446;50.876;4.736;2024-01-10T03:23:50;6.13;;;3.07;;
8819;SDS011;4446;50.876;4.736;2024-01-10T03:26:17;6.67;;;3.37;;
8819;SDS011;4446;50.876;4.736;2024-01-10T03:28:44;5.80;;;3.47;;
8819;SDS011;4446;50.876;4.736;2024-01-10T03:31:11;4.60;;;2.80;;
8819;SDS011;4446;50.876;4.736;2024-01-10T03:33:38;4.27;;;2.63;;
8819;SDS011;4446;50.876;4.736;2024-01-10T03:36:06;8.00;;;3.27;;
8819;SDS011;4446;50.876;4.736;2024-01-10T03:38:35;4.67;;;2.50;;
8819;SDS011;4446;50.876;4.736;2024-01-10T03:41:02;6.13;;;3.17;;
8819;SDS011;4446;50.876;4.736;2024-01-10T03:43:29;5.20;;;2.93;;
8819;SDS011;4446;50.876;4.736;2024-01-10T03:45:57;5.80;;;2.97;;
8819;SDS011;4446;50.876;4.736;2024-01-10T03:48:24;6.77;;;3.80;;
8819;SDS011;4446;50.876;4.736;2024-01-10T03:50:51;7.90;;;3.00;;
8819;SDS011;4446;50.876;4.736;2024-01-10T03:53:20;8.73;;;3.07;;
8819;SDS011;4446;50.876;4.736;2024-01-10T03:55:47;7.83;;;3.40;;
8819;SDS011;4446;50.876;4.736;2024-01-10T03:58:14;5.77;;;3.00;;
8819;SDS011;4446;50.876;4.736;2024-01-10T04:00:41;4.90;;;2.50;;
8819;SDS011;4446;50.876;4.736;2024-01-10T04:03:08;7.37;;;3.20;;
8819;SDS011;4446;50.876;4.736;2024-01-10T04:05:35;8.80;;;3.63;;
8819;SDS011;4446;50.876;4.736;2024-01-10T04:08:02;6.23;;;3.27;;
8819;SDS011;4446;50.876;4.736;2024-01-10T04:10:31;5.03;;;3.00;;
8819;SDS011;4446;50.876;4.736;2024-01-10T04:12:58;4.47;;;3.03;;
8819;SDS011;4446;50.876;4.736;2024-01-10T04:15:24;5.37;;;3.07;;
8819;SDS011;4446;50.876;4.736;2024-01-10T04:17:51;5.80;;;3.00;;
8819;SDS011;4446;50.876;4.736;2024-01-10T04:20:18;3.83;;;2.53;;
8819;SDS011;4446;50.876;4.736;2024-01-10T04:22:45;4.53;;;3.07;;
8819;SDS011;4446;50.876;4.736;2024-01-10T04:25:12;6.53;;;3.03;;
8819;SDS011;4446;50.876;4.736;2024-01-10T04:27:41;4.73;;;2.43;;
8819;SDS011;4446;50.876;4.736;2024-01-10T04:30:08;4.57;;;2.90;;
8819;SDS011;4446;50.876;4.736;2024-01-10T04:32:36;7.83;;;3.30;;
8819;SDS011;4446;50.876;4.736;2024-01-10T04:35:03;7.20;;;3.40;;
8819;SDS011;4446;50.876;4.736;2024-01-10T04:37:30;6.20;;;2.97;;
8819;SDS011;4446;50.876;4.736;2024-01-10T04:39:57;7.13;;;3.23;;
8819;SDS011;4446;50.876;4.736;2024-01-10T04:42:24;7.97;;;3.40;;
8819;SDS011;4446;50.876;4.736;2024-01-10T04:44:53;5.63;;;2.80;;
8819;SDS011;4446;50.876;4.736;2024-01-10T04:47:20;7.17;;;3.50;;
8819;SDS011;4446;50.876;4.736;2024-01-10T04:49:47;7.60;;;3.90;;
8819;SDS011;4446;50.876;4.736;2024-01-10T04:52:14;7.97;;;3.57;;
8819;SDS011;4446;50.876;4.736;2024-01-10T04:54:41;4.83;;;3.10;;
8819;SDS011;4446;50.876;4.736;2024-01-10T04:57:08;5.47;;;2.67;;
8819;SDS011;4446;50.876;4.736;2024-01-10T04:59:34;6.97;;;3.50;;
8819;SDS011;4446;50.876;4.736;2024-01-10T05:02:03;7.00;;;2.73;;
8819;SDS011;4446;50.876;4.736;2024-01-10T05:04:30;6.57;;;3.10;;
8819;SDS011;4446;50.876;4.736;2024-01-10T05:06:57;5.60;;;3.07;;
8819;SDS011;4446;50.876;4.736;2024-01-10T05:09:24;7.13;;;2.93;;
8819;SDS011;4446;50.876;4.736;2024-01-10T05:11:51;3.93;;;2.93;;
8819;SDS011;4446;50.876;4.736;2024-01-10T05:14:18;6.43;;;3.50;;
8819;SDS011;4446;50.876;4.736;2024-01-10T05:16:46;4.73;;;3.07;;
8819;SDS011;4446;50.876;4.736;2024-01-10T05:19:15;7.67;;;3.70;;
8819;SDS011;4446;50.876;4.736;2024-01-10T05:21:42;6.27;;;3.07;;
8819;SDS011;4446;50.876;4.736;2024-01-10T05:24:09;8.43;;;3.10;;
8819;SDS011;4446;50.876;4.736;2024-01-10T05:26:36;7.23;;;3.80;;
8819;SDS011;4446;50.876;4.736;2024-01-10T05:29:03;7.37;;;3.23;;
8819;SDS011;4446;50.876;4.736;2024-01-10T05:31:30;5.10;;;3.17;;
8819;SDS011;4446;50.876;4.736;2024-01-10T05:33:57;5.33;;;3.20;;
8819;SDS011;4446;50.876;4.736;2024-01-10T05:36:25;6.17;;;2.97;;
8819;SDS011;4446;50.876;4.736;2024-01-10T05:38:52;4.77;;;2.97;;
8819;SDS011;4446;50.876;4.736;2024-01-10T05:41:19;6.00;;;3.20;;
8819;SDS011;4446;50.876;4.736;2024-01-10T05:43:46;6.70;;;3.37;;
8819;SDS011;4446;50.876;4.736;2024-01-10T05:46:13;6.23;;;3.27;;
8819;SDS011;4446;50.876;4.736;2024-01-10T05:48:41;6.20;;;3.03;;
8819;SDS011;4446;50.876;4.736;2024-01-10T05:51:08;7.07;;;3.37;;
8819;SDS011;4446;50.876;4.736;2024-01-10T05:53:36;8.17;;;3.40;;
8819;SDS011;4446;50.876;4.736;2024-01-10T05:56:05;8.67;;;3.70;;
8819;SDS011;4446;50.876;4.736;2024-01-10T05:58:32;8.83;;;3.47;;
8819;SDS011;4446;50.876;4.736;2024-01-10T06:01:00;4.10;;;2.63;;
8819;SDS011;4446;50.876;4.736;2024-01-10T06:03:27;5.33;;;3.03;;
8819;SDS011;4446;50.876;4.736;2024-01-10T06:05:54;6.07;;;3.07;;
8819;SDS011;4446;50.876;4.736;2024-01-10T06:08:21;5.33;;;2.90;;
8819;SDS011;4446;50.876;4.736;2024-01-10T06:10:52;9.63;;;4.00;;
8819;SDS011;4446;50.876;4.736;2024-01-10T06:13:19;5.73;;;3.27;;
8819;SDS011;4446;50.876;4.736;2024-01-10T06:15:46;7.67;;;3.20;;
8819;SDS011;4446;50.876;4.736;2024-01-10T06:18:13;6.87;;;3.77;;
8819;SDS011;4446;50.876;4.736;2024-01-10T06:20:40;5.97;;;3.40;;
8819;SDS011;4446;50.876;4.736;2024-01-10T06:23:07;4.37;;;2.87;;
8819;SDS011;4446;50.876;4.736;2024-01-10T06:25:34;5.30;;;2.60;;
8819;SDS011;4446;50.876;4.736;2024-01-10T06:28:02;5.33;;;3.00;;
8819;SDS011;4446;50.876;4.736;2024-01-10T06:30:30;7.13;;;2.97;;
8819;SDS011;4446;50.876;4.736;2024-01-10T06:32:57;7.03;;;3.17;;
8819;SDS011;4446;50.876;4.736;2024-01-10T06:35:24;5.67;;;2.80;;
8819;SDS011;4446;50.876;4.736;2024-01-10T06:37:51;5.33;;;3.07;;
8819;SDS011;4446;50.876;4.736;2024-01-10T06:40:19;4.87;;;3.23;;
8819;SDS011;4446;50.876;4.736;2024-01-10T06:42:47;6.00;;;2.80;;
8819;SDS011;4446;50.876;4.736;2024-01-10T06:45:15;8.83;;;3.40;;
8819;SDS011;4446;50.876;4.736;2024-01-10T06:47:42;7.17;;;3.50;;
8819;SDS011;4446;50.876;4.736;2024-01-10T06:50:09;5.67;;;3.40;;
8819;SDS011;4446;50.876;4.736;2024-01-10T06:52:36;7.27;;;3.17;;
8819;SDS011;4446;50.876;4.736;2024-01-10T06:55:04;9.10;;;3.60;;
8819;SDS011;4446;50.876;4.736;2024-01-10T06:57:32;6.30;;;3.23;;
8819;SDS011;4446;50.876;4.736;2024-01-10T06:59:59;7.63;;;3.13;;
8819;SDS011;4446;50.876;4.736;2024-01-10T07:02:29;6.17;;;3.53;;
8819;SDS011;4446;50.876;4.736;2024-01-10T07:04:57;5.67;;;3.27;;
8819;SDS011;4446;50.876;4.736;2024-01-10T07:07:24;6.23;;;3.03;;
8819;SDS011;4446;50.876;4.736;2024-01-10T07:09:51;8.70;;;3.23;;
8819;SDS011;4446;50.876;4.736;2024-01-10T07:12:18;5.13;;;3.03;;
8819;SDS011;4446;50.876;4.736;2024-01-10T07:14:45;7.70;;;3.33;;
8819;SDS011;4446;50.876;4.736;2024-01-10T07:17:12;7.03;;;3.50;;
8819;SDS011;4446;50.876;4.736;2024-01-10T07:19:41;5.53;;;2.70;;
8819;SDS011;4446;50.876;4.736;2024-01-10T07:22:08;5.80;;;3.17;;
8819;SDS011;4446;50.876;4.736;2024-01-10T07:24:36;6.27;;;3.00;;
8819;SDS011;4446;50.876;4.736;2024-01-10T07:27:03;6.03;;;3.00;;
8819;SDS011;4446;50.876;4.736;2024-01-10T07:29:31;6.00;;;2.67;;
8819;SDS011;4446;50.876;4.736;2024-01-10T07:31:58;8.10;;;3.00;;
8819;SDS011;4446;50.876;4.736;2024-01-10T07:34:25;4.97;;;3.07;;
8819;SDS011;4446;50.876;4.736;2024-01-10T07:36:53;5.40;;;3.07;;
8819;SDS011;4446;50.876;4.736;2024-01-10T07:39:20;7.83;;;3.47;;
8819;SDS011;4446;50.876;4.736;2024-01-10T07:41:47;5.10;;;3.10;;
8819;SDS011;4446;50.876;4.736;2024-01-10T07:44:15;7.10;;;3.50;;
8819;SDS011;4446;50.876;4.736;2024-01-10T07:46:42;9.17;;;3.90;;
8819;SDS011;4446;50.876;4.736;2024-01-10T07:49:10;5.60;;;2.90;;
8819;SDS011;4446;50.876;4.736;2024-01-10T07:51:38;5.37;;;3.03;;
8819;SDS011;4446;50.876;4.736;2024-01-10T07:54:06;5.67;;;3.27;;
8819;SDS011;4446;50.876;4.736;2024-01-10T07:56:33;7.60;;;3.13;;
8819;SDS011;4446;50.876;4.736;2024-01-10T07:59:00;6.63;;;3.37;;
8819;SDS011;4446;50.876;4.736;2024-01-10T08:01:27;4.60;;;2.90;;
8819;SDS011;4446;50.876;4.736;2024-01-10T08:03:54;6.47;;;2.87;;
8819;SDS011;4446;50.876;4.736;2024-01-10T08:06:21;7.67;;;3.43;;
8819;SDS011;4446;50.876;4.736;2024-01-10T08:08:48;5.50;;;2.97;;
8819;SDS011;4446;50.876;4.736;2024-01-10T08:11:17;8.20;;;3.47;;
8819;SDS011;4446;50.876;4.736;2024-01-10T08:13:44;6.77;;;3.93;;
8819;SDS011;4446;50.876;4.736;2024-01-10T08:16:11;6.30;;;3.43;;
8819;SDS011;4446;50.876;4.736;2024-01-10T08:18:38;5.03;;;2.73;;
8819;SDS011;4446;50.876;4.736;2024-01-10T08:21:05;5.53;;;3.50;;
8819;SDS011;4446;50.876;4.736;2024-01-10T08:23:32;6.73;;;3.27;;
8819;SDS011;4446;50.876;4.736;2024-01-10T08:25:59;5.87;;;3.10;;
8819;SDS011;4446;50.876;4.736;2024-01-10T08:28:27;5.17;;;3.17;;
8819;SDS011;4446;50.876;4.736;2024-01-10T08:30:54;8.60;;;3.60;;
8819;SDS011;4446;50.876;4.736;2024-01-10T08:33:21;5.50;;;3.10;;
8819;SDS011;4446;50.876;4.736;2024-01-10T08:35:48;5.73;;;3.53;;
8819;SDS011;4446;50.876;4.736;2024-01-10T08:38:15;5.23;;;3.43;;
8819;SDS011;4446;50.876;4.736;2024-01-10T08:40:42;5.53;;;3.33;;
8819;SDS011;4446;50.876;4.736;2024-01-10T08:43:09;4.23;;;2.93;;
8819;SDS011;4446;50.876;4.736;2024-01-10T08:45:38;5.27;;;3.40;;
8819;SDS011;4446;50.876;4.736;2024-01-10T08:48:05;13.23;;;3.30;;
8819;SDS011;4446;50.876;4.736;2024-01-10T08:50:32;8.80;;;3.00;;
8819;SDS011;4446;50.876;4.736;2024-01-10T08:53:00;4.87;;;3.53;;
8819;SDS011;4446;50.876;4.736;2024-01-10T08:55:28;5.33;;;3.27;;
8819;SDS011;4446;50.876;4.736;2024-01-10T08:57:56;4.47;;;2.90;;
8819;SDS011;4446;50.876;4.736;2024-01-10T09:00:23;8.53;;;3.67;;
8819;SDS011;4446;50.876;4.736;2024-01-10T09:02:52;5.77;;;3.17;;
8819;SDS011;4446;50.876;4.736;2024-01-10T09:05:19;6.03;;;3.87;;
8819;SDS011;4446;50.876;4.736;2024-01-10T09:07:46;9.33;;;3.40;;
8819;SDS011;4446;50.876;4.736;2024-01-10T09:10:13;5.90;;;3.37;;
8819;SDS011;4446;50.876;4.736;2024-01-10T09:12:41;6.67;;;3.73;;
8819;SDS011;4446;50.876;4.736;2024-01-10T09:15:11;9.40;;;3.37;;
8819;SDS011;4446;50.876;4.736;2024-01-10T09:17:39;5.63;;;3.07;;
8819;SDS011;4446;50.876;4.736;2024-01-10T09:20:09;7.77;;;3.50;;
8819;SDS011;4446;50.876;4.736;2024-01-10T09:22:36;4.90;;;3.13;;
8819;SDS011;4446;50.876;4.736;2024-01-10T09:25:04;9.63;;;3.63;;
8819;SDS011;4446;50.876;4.736;2024-01-10T09:27:32;9.23;;;3.53;;
8819;SDS011;4446;50.876;4.736;2024-01-10T09:29:59;6.93;;;4.43;;
8819;SDS011;4446;50.876;4.736;2024-01-10T09:32:27;6.33;;;3.27;;
8819;SDS011;4446;50.876;4.736;2024-01-10T09:34:54;6.33;;;3.53;;
8819;SDS011;4446;50.876;4.736;2024-01-10T09:37:23;6.47;;;3.40;;
8819;SDS011;4446;50.876;4.736;2024-01-10T09:39:50;7.10;;;3.73;;
8819;SDS011;4446;50.876;4.736;2024-01-10T09:42:17;10.03;;;4.20;;
8819;SDS011;4446;50.876;4.736;2024-01-10T09:44:46;9.77;;;4.57;;
8819;SDS011;4446;50.876;4.736;2024-01-10T09:47:15;8.97;;;4.40;;
8819;SDS011;4446;50.876;4.736;2024-01-10T09:49:42;6.83;;;3.60;;
8819;SDS011;4446;50.876;4.736;2024-01-10T09:52:13;9.13;;;4.33;;
8819;SDS011;4446;50.876;4.736;2024-01-10T09:54:44;6.17;;;3.17;;
8819;SDS011;4446;50.876;4.736;2024-01-10T09:57:12;9.73;;;4.30;;
8819;SDS011;4446;50.876;4.736;2024-01-10T09:59:41;9.03;;;4.03;;
8819;SDS011;4446;50.876;4.736;2024-01-10T10:02:12;9.23;;;4.27;;
8819;SDS011;4446;50.876;4.736;2024-01-10T10:04:41;10.47;;;3.83;;
8819;SDS011;4446;50.876;4.736;2024-01-10T10:07:23;8.30;;;4.63;;
8819;SDS011;4446;50.876;4.736;2024-01-10T10:09:51;9.27;;;3.73;;
8819;SDS011;4446;50.876;4.736;2024-01-10T10:12:21;7.80;;;4.23;;
8819;SDS011;4446;50.876;4.736;2024-01-10T10:14:49;6.73;;;3.70;;
8819;SDS011;4446;50.876;4.736;2024-01-10T10:17:16;4.77;;;3.37;;
8819;SDS011;4446;50.876;4.736;2024-01-10T10:19:44;7.10;;;3.47;;
8819;SDS011;4446;50.876;4.736;2024-01-10T10:22:11;8.30;;;3.63;;
8819;SDS011;4446;50.876;4.736;2024-01-10T10:24:38;6.77;;;3.87;;
8819;SDS011;4446;50.876;4.736;2024-01-10T10:27:09;8.43;;;4.07;;
8819;SDS011;4446;50.876;4.736;2024-01-10T10:29:37;7.33;;;4.57;;
8819;SDS011;4446;50.876;4.736;2024-01-10T10:32:05;8.87;;;4.30;;
8819;SDS011;4446;50.876;4.736;2024-01-10T10:34:33;9.70;;;4.07;;
8819;SDS011;4446;50.876;4.736;2024-01-10T10:37:00;10.57;;;4.33;;
8819;SDS011;4446;50.876;4.736;2024-01-10T10:39:28;8.03;;;3.70;;
8819;SDS011;4446;50.876;4.736;2024-01-10T10:41:55;8.23;;;4.23;;
8819;SDS011;4446;50.876;4.736;2024-01-10T10:44:25;6.80;;;3.63;;
8819;SDS011;4446;50.876;4.736;2024-01-10T10:46:59;8.13;;;4.07;;
8819;SDS011;4446;50.876;4.736;2024-01-10T10:49:31;7.20;;;4.30;;
8819;SDS011;4446;50.876;4.736;2024-01-10T10:51:59;6.20;;;3.10;;
8819;SDS011;4446;50.876;4.736;2024-01-10T10:54:28;5.27;;;3.03;;
8819;SDS011;4446;50.876;4.736;2024-01-10T10:56:57;8.23;;;4.30;;
8819;SDS011;4446;50.876;4.736;2024-01-10T10:59:27;7.25;;;3.70;;
8819;SDS011;4446;50.876;4.736;2024-01-10T11:01:57;7.90;;;3.70;;
8819;SDS011;4446;50.876;4.736;2024-01-10T11:04:24;6.83;;;3.73;;
8819;SDS011;4446;50.876;4.736;2024-01-10T11:06:52;16.37;;;5.87;;
8819;SDS011;4446;50.876;4.736;2024-01-10T11:09:19;7.03;;;3.77;;
8819;SDS011;4446;50.876;4.736;2024-01-10T11:12:02;9.03;;;4.40;;
8819;SDS011;4446;50.876;4.736;2024-01-10T11:14:47;6.78;;;3.83;;
8819;SDS011;4446;50.876;4.736;2024-01-10T11:17:41;9.90;;;4.33;;
8819;SDS011;4446;50.876;4.736;2024-01-10T11:20:26;4.57;;;3.07;;
8819;SDS011;4446;50.876;4.736;2024-01-10T11:23:21;5.83;;;3.33;;
8819;SDS011;4446;50.876;4.736;2024-01-10T11:26:09;7.18;;;3.40;;
8819;SDS011;4446;50.876;4.736;2024-01-10T11:28:38;6.03;;;3.30;;
8819;SDS011;4446;50.876;4.736;2024-01-10T11:31:08;9.00;;;4.07;;
8819;SDS011;4446;50.876;4.736;2024-01-10T11:33:36;6.80;;;3.70;;
8819;SDS011;4446;50.876;4.736;2024-01-10T11:36:17;7.43;;;4.03;;
8819;SDS011;4446;50.876;4.736;2024-01-10T11:38:48;6.77;;;3.40;;
8819;SDS011;4446;50.876;4.736;2024-01-10T11:41:20;6.20;;;3.30;;
8819;SDS011;4446;50.876;4.736;2024-01-10T11:46:55;6.05;;;3.28;;
8819;SDS011;4446;50.876;4.736;2024-01-10T11:49:23;5.90;;;3.60;;
8819;SDS011;4446;50.876;4.736;2024-01-10T11:51:53;9.87;;;4.60;;
8819;SDS011;4446;50.876;4.736;2024-01-10T11:54:37;6.88;;;4.07;;
8819;SDS011;4446;50.876;4.736;2024-01-10T11:57:12;8.38;;;3.88;;
8819;SDS011;4446;50.876;4.736;2024-01-10T11:59:45;10.43;;;3.90;;
8819;SDS011;4446;50.876;4.736;2024-01-10T12:02:14;7.95;;;3.88;;
8819;SDS011;4446;50.876;4.736;2024-01-10T12:04:42;9.75;;;4.63;;
8819;SDS011;4446;50.876;4.736;2024-01-10T12:07:10;12.43;;;4.63;;
8819;SDS011;4446;50.876;4.736;2024-01-10T12:09:38;8.25;;;4.10;;
8819;SDS011;4446;50.876;4.736;2024-01-10T12:12:07;7.83;;;3.37;;
8819;SDS011;4446;50.876;4.736;2024-01-10T12:14:34;7.10;;;3.57;;
8819;SDS011;4446;50.876;4.736;2024-01-10T12:17:01;8.65;;;4.07;;
8819;SDS011;4446;50.876;4.736;2024-01-10T12:19:31;10.05;;;4.38;;
8819;SDS011;4446;50.876;4.736;2024-01-10T12:21:58;9.70;;;4.22;;
8819;SDS011;4446;50.876;4.736;2024-01-10T12:24:27;10.15;;;4.30;;
8819;SDS011;4446;50.876;4.736;2024-01-10T12:26:55;8.70;;;3.78;;
8819;SDS011;4446;50.876;4.736;2024-01-10T12:29:22;6.90;;;3.33;;
8819;SDS011;4446;50.876;4.736;2024-01-10T12:31:50;6.03;;;3.22;;
8819;SDS011;4446;50.876;4.736;2024-01-10T12:34:17;6.70;;;3.40;;
8819;SDS011;4446;50.876;4.736;2024-01-10T12:36:45;7.15;;;3.83;;
8819;SDS011;4446;50.876;4.736;2024-01-10T12:39:13;7.97;;;3.63;;
8819;SDS011;4446;50.876;4.736;2024-01-10T12:41:40;7.57;;;3.63;;
8819;SDS011;4446;50.876;4.736;2024-01-10T12:44:09;5.65;;;3.45;;
8819;SDS011;4446;50.876;4.736;2024-01-10T12:46:37;7.95;;;3.65;;
8819;SDS011;4446;50.876;4.736;2024-01-10T12:49:17;7.47;;;3.95;;
8819;SDS011;4446;50.876;4.736;2024-01-10T12:51:46;7.65;;;3.90;;
8819;SDS011;4446;50.876;4.736;2024-01-10T12:54:14;8.13;;;3.72;;
8819;SDS011;4446;50.876;4.736;2024-01-10T12:56:41;8.57;;;4.32;;
8819;SDS011;4446;50.876;4.736;2024-01-10T12:59:08;9.15;;;4.30;;
8819;SDS011;4446;50.876;4.736;2024-01-10T13:01:35;8.23;;;3.45;;
8819;SDS011;4446;50.876;4.736;2024-01-10T13:04:03;8.15;;;3.72;;
8819;SDS011;4446;50.876;4.736;2024-01-10T13:06:30;9.40;;;3.97;;
8819;SDS011;4446;50.876;4.736;2024-01-10T13:08:58;7.38;;;4.18;;
8819;SDS011;4446;50.876;4.736;2024-01-10T13:11:25;10.20;;;4.38;;
8819;SDS011;4446;50.876;4.736;2024-01-10T13:13:52;8.90;;;4.22;;
8819;SDS011;4446;50.876;4.736;2024-01-10T13:16:19;5.82;;;3.60;;
8819;SDS011;4446;50.876;4.736;2024-01-10T13:18:46;9.85;;;4.60;;
8819;SDS011;4446;50.876;4.736;2024-01-10T13:21:15;7.32;;;4.20;;
8819;SDS011;4446;50.876;4.736;2024-01-10T13:23:43;10.07;;;4.28;;
8819;SDS011;4446;50.876;4.736;2024-01-10T13:26:12;12.63;;;4.63;;
8819;SDS011;4446;50.876;4.736;2024-01-10T13:28:40;7.15;;;3.90;;
8819;SDS011;4446;50.876;4.736;2024-01-10T13:31:07;10.50;;;4.45;;
8819;SDS011;4446;50.876;4.736;2024-01-10T13:33:34;8.13;;;4.03;;
8819;SDS011;4446;50.876;4.736;2024-01-10T13:36:02;7.30;;;3.33;;
8819;SDS011;4446;50.876;4.736;2024-01-10T13:38:29;9.05;;;4.18;;
8819;SDS011;4446;50.876;4.736;2024-01-10T13:40:56;14.85;;;5.68;;
8819;SDS011;4446;50.876;4.736;2024-01-10T13:43:25;11.90;;;4.05;;
8819;SDS011;4446;50.876;4.736;2024-01-10T13:45:52;9.05;;;4.82;;
8819;SDS011;4446;50.876;4.736;2024-01-10T13:48:19;10.82;;;4.35;;
8819;SDS011;4446;50.876;4.736;2024-01-10T13:50:46;7.57;;;3.83;;
8819;SDS011;4446;50.876;4.736;2024-01-10T13:53:13;9.05;;;4.38;;
8819;SDS011;4446;50.876;4.736;2024-01-10T13:55:42;7.35;;;4.13;;
8819;SDS011;4446;50.876;4.736;2024-01-10T13:58:09;8.00;;;3.90;;
8819;SDS011;4446;50.876;4.736;2024-01-10T14:00:37;10.50;;;4.43;;
8819;SDS011;4446;50.876;4.736;2024-01-10T14:03:04;10.50;;;4.63;;
8819;SDS011;4446;50.876;4.736;2024-01-10T14:05:31;7.13;;;3.97;;
8819;SDS011;4446;50.876;4.736;2024-01-10T14:07:58;8.73;;;4.15;;
8819;SDS011;4446;50.876;4.736;2024-01-10T14:10:25;9.77;;;4.38;;
8819;SDS011;4446;50.876;4.736;2024-01-10T14:12:52;6.28;;;3.83;;
8819;SDS011;4446;50.876;4.736;2024-01-10T14:15:19;7.95;;;4.05;;
8819;SDS011;4446;50.876;4.736;2024-01-10T14:17:50;20.55;;;4.00;;
8819;SDS011;4446;50.876;4.736;2024-01-10T14:20:17;6.50;;;4.10;;
8819;SDS011;4446;50.876;4.736;2024-01-10T14:22:48;8.05;;;4.00;;
8819;SDS011;4446;50.876;4.736;2024-01-10T14:25:15;6.47;;;3.78;;
8819;SDS011;4446;50.876;4.736;2024-01-10T14:27:43;10.30;;;4.15;;
8819;SDS011;4446;50.876;4.736;2024-01-10T14:30:10;9.00;;;4.57;;
8819;SDS011;4446;50.876;4.736;2024-01-10T14:32:40;12.77;;;4.53;;
8819;SDS011;4446;50.876;4.736;2024-01-10T14:35:08;14.25;;;4.47;;
8819;SDS011;4446;50.876;4.736;2024-01-10T14:37:35;8.73;;;3.92;;
8819;SDS011;4446;50.876;4.736;2024-01-10T14:40:06;10.70;;;4.40;;
8819;SDS011;4446;50.876;4.736;2024-01-10T14:42:34;10.13;;;4.43;;
8819;SDS011;4446;50.876;4.736;2024-01-10T14:45:01;8.95;;;4.38;;
8819;SDS011;4446;50.876;4.736;2024-01-10T14:47:29;8.55;;;4.05;;
8819;SDS011;4446;50.876;4.736;2024-01-10T14:50:00;11.32;;;4.30;;
8819;SDS011;4446;50.876;4.736;2024-01-10T14:52:29;8.82;;;4.32;;
8819;SDS011;4446;50.876;4.736;2024-01-10T14:54:57;9.85;;;4.40;;
8819;SDS011;4446;50.876;4.736;2024-01-10T14:57:24;10.77;;;4.55;;
8819;SDS011;4446;50.876;4.736;2024-01-10T14:59:51;7.63;;;3.70;;
8819;SDS011;4446;50.876;4.736;2024-01-10T15:02:18;10.30;;;4.97;;
8819;SDS011;4446;50.876;4.736;2024-01-10T15:04:45;9.23;;;4.10;;
8819;SDS011;4446;50.876;4.736;2024-01-10T15:07:12;8.35;;;4.88;;
8819;SDS011;4446;50.876;4.736;2024-01-10T15:09:41;7.05;;;4.00;;
8819;SDS011;4446;50.876;4.736;2024-01-10T15:12:08;9.07;;;4.50;;
8819;SDS011;4446;50.876;4.736;2024-01-10T15:14:36;7.43;;;3.58;;
8819;SDS011;4446;50.876;4.736;2024-01-10T15:17:03;11.73;;;4.90;;
8819;SDS011;4446;50.876;4.736;2024-01-10T15:19:33;14.10;;;5.15;;
8819;SDS011;4446;50.876;4.736;2024-01-10T15:22:00;11.40;;;4.70;;
8819;SDS011;4446;50.876;4.736;2024-01-10T15:24:27;8.05;;;3.83;;